createdAt,value
2022-12-22T00:04:02.900Z,2.05
2022-12-22T00:09:43.745Z,6.63
2022-12-22T00:15:24.728Z,8.77
2022-12-22T00:21:06.434Z,3.67
2022-12-22T00:26:48.898Z,4.47
2022-12-22T00:32:33.305Z,7.50
2022-12-22T00:38:14.316Z,6.22
2022-12-22T00:43:54.864Z,2.45
2022-12-22T00:49:36.064Z,8.32
2022-12-22T00:55:17.055Z,5.55
2022-12-22T01:00:58.060Z,5.25
2022-12-22T01:06:38.929Z,7.03
2022-12-22T01:12:19.962Z,2.75
2022-12-22T01:18:00.781Z,5.03
2022-12-22T01:23:41.363Z,2.92
2022-12-22T01:29:22.344Z,1.35
2022-12-22T01:35:03.260Z,2.88
2022-12-22T01:40:44.716Z,1.90
2022-12-22T01:46:50.927Z,1.55
2022-12-22T01:52:34.703Z,2.63
2022-12-22T01:58:15.623Z,1.00
2022-12-22T02:03:56.388Z,0.60
2022-12-22T02:10:22.913Z,4.03
2022-12-22T02:16:49.494Z,0.82
2022-12-22T02:22:42.376Z,3.95
2022-12-22T02:28:24.802Z,0.80
2022-12-22T02:34:05.911Z,1.23
2022-12-22T02:40:35.685Z,2.65
2022-12-22T02:46:34.517Z,1.08
2022-12-22T02:52:31.370Z,2.50
2022-12-22T02:58:12.508Z,2.40
2022-12-22T03:03:53.149Z,2.05
2022-12-22T03:09:33.967Z,0.70
2022-12-22T03:15:14.356Z,2.90
2022-12-22T03:20:55.305Z,3.30
2022-12-22T03:26:17.073Z,1.02
2022-12-22T03:31:39.184Z,1.00
2022-12-22T03:37:01.174Z,0.80
2022-12-22T03:42:41.805Z,2.50
2022-12-22T03:48:04.173Z,1.20
2022-12-22T03:53:25.833Z,1.23
2022-12-22T03:58:48.002Z,1.70
2022-12-22T04:04:10.718Z,0.60
2022-12-22T04:09:32.364Z,0.95
2022-12-22T04:14:54.346Z,1.13
2022-12-22T04:20:16.294Z,1.08
2022-12-22T04:26:03.504Z,0.63
2022-12-22T04:31:25.926Z,1.20
2022-12-22T04:36:48.006Z,2.88
2022-12-22T04:42:09.859Z,1.25
2022-12-22T04:47:31.840Z,0.82
2022-12-22T04:52:56.471Z,0.60
2022-12-22T04:58:18.622Z,0.60
2022-12-22T05:03:44.098Z,0.70
2022-12-22T05:09:06.334Z,0.60
2022-12-22T05:14:28.367Z,0.95
2022-12-22T05:19:50.656Z,1.92
2022-12-22T05:25:12.791Z,0.60
2022-12-22T05:30:35.028Z,0.60
2022-12-22T05:36:06.741Z,0.70
2022-12-22T05:41:29.317Z,0.52
2022-12-22T05:46:57.191Z,1.15
2022-12-22T05:52:25.165Z,0.70
2022-12-22T05:57:47.504Z,0.60
2022-12-22T06:03:12.457Z,0.80
2022-12-22T06:08:35.255Z,1.35
2022-12-22T06:13:58.484Z,0.93
2022-12-22T06:19:23.023Z,0.70
2022-12-22T06:24:47.835Z,0.95
2022-12-22T06:30:15.788Z,0.90
2022-12-22T06:35:38.223Z,0.75
2022-12-22T06:41:02.622Z,1.33
2022-12-22T06:46:26.973Z,1.10
2022-12-22T06:52:24.872Z,0.90
2022-12-22T06:57:57.615Z,1.42
2022-12-22T07:03:38.484Z,0.60
2022-12-22T07:09:07.842Z,0.95
2022-12-22T07:14:33.523Z,1.92
2022-12-22T07:19:58.271Z,0.80
2022-12-22T07:25:20.544Z,0.50
2022-12-22T07:30:42.807Z,1.30
2022-12-22T07:36:08.026Z,1.23
2022-12-22T07:41:48.483Z,1.52
2022-12-22T07:47:11.202Z,0.98
2022-12-22T07:52:33.243Z,1.02
2022-12-22T07:57:56.503Z,0.60
2022-12-22T08:03:18.638Z,0.65
2022-12-22T08:08:40.603Z,0.50
2022-12-22T08:14:03.217Z,0.85
2022-12-22T08:19:25.474Z,0.60
2022-12-22T08:24:47.685Z,0.60
2022-12-22T08:30:11.331Z,0.57
2022-12-22T08:43:06.516Z,0.80
2022-12-22T08:48:28.874Z,0.50
2022-12-22T08:54:30.031Z,0.55
2022-12-22T08:59:54.763Z,0.50
2022-12-22T09:05:17.043Z,0.50
2022-12-22T09:13:21.452Z,0.82
2022-12-22T09:18:44.047Z,0.50
2022-12-22T09:24:10.385Z,0.90
2022-12-22T09:29:32.630Z,0.55
2022-12-22T09:34:54.893Z,0.70
2022-12-22T09:40:16.972Z,0.50
2022-12-22T09:46:06.647Z,0.80
2022-12-22T09:51:50.125Z,0.57
2022-12-22T09:57:16.794Z,0.70
2022-12-22T10:02:57.035Z,0.88
2022-12-22T10:21:46.624Z,0.60
2022-12-22T10:27:56.443Z,0.53
2022-12-22T10:33:34.834Z,0.45
2022-12-22T10:39:09.640Z,0.50
2022-12-22T10:44:37.673Z,0.60
2022-12-22T10:55:27.685Z,0.82
2022-12-22T11:01:03.380Z,0.50
2022-12-22T11:06:25.876Z,0.70
2022-12-22T11:12:02.892Z,0.68
2022-12-22T11:17:34.461Z,0.60
2022-12-22T11:23:03.764Z,0.73
2022-12-22T11:28:38.405Z,0.50
2022-12-22T11:34:21.204Z,0.60
2022-12-22T11:40:12.562Z,0.75
2022-12-22T11:45:43.958Z,0.50
2022-12-22T11:51:31.122Z,0.60
2022-12-22T11:57:06.172Z,0.60
2022-12-22T12:03:04.732Z,0.50
2022-12-22T12:08:54.318Z,0.73
2022-12-22T12:14:25.641Z,0.60
2022-12-22T12:19:59.384Z,0.60
2022-12-22T12:25:38.553Z,0.52
2022-12-22T12:31:02.468Z,0.60
2022-12-22T12:36:40.398Z,0.50
2022-12-22T12:42:19.832Z,0.50
2022-12-22T12:47:42.932Z,0.50
2022-12-22T12:53:11.826Z,0.50
2022-12-22T12:58:39.706Z,0.60
2022-12-22T13:04:04.296Z,0.70
2022-12-22T13:09:49.977Z,0.60
2022-12-22T13:15:40.134Z,0.50
2022-12-22T13:27:13.263Z,0.60
2022-12-22T13:32:37.155Z,0.50
2022-12-22T13:37:59.653Z,0.60
2022-12-22T13:43:22.394Z,0.60
2022-12-22T13:48:48.146Z,0.50
2022-12-22T13:54:12.084Z,0.50
2022-12-22T13:59:36.923Z,0.50
2022-12-22T14:05:11.174Z,0.50
2022-12-22T14:10:44.423Z,0.50
2022-12-22T14:16:06.837Z,0.70
2022-12-22T14:21:28.840Z,0.50
2022-12-22T14:26:53.303Z,0.60
2022-12-22T14:32:34.284Z,0.75
2022-12-22T14:38:23.869Z,0.73
2022-12-22T14:43:49.957Z,0.50
2022-12-22T14:49:19.216Z,0.50
2022-12-22T14:54:41.493Z,0.50
2022-12-22T15:00:28.139Z,0.55
2022-12-22T15:05:50.290Z,0.60
2022-12-22T15:11:18.564Z,0.50
2022-12-22T15:16:40.524Z,0.50
2022-12-22T15:22:02.799Z,0.57
2022-12-22T15:27:24.804Z,0.52
2022-12-22T15:32:47.528Z,0.60
2022-12-22T15:38:19.862Z,0.50
2022-12-22T15:43:59.123Z,0.50
2022-12-22T15:49:25.032Z,0.57
2022-12-22T15:54:47.148Z,0.70
2022-12-22T16:00:12.126Z,0.95
2022-12-22T16:05:35.065Z,0.50
2022-12-22T16:10:56.736Z,0.60
2022-12-22T16:16:18.755Z,0.57
2022-12-22T16:21:41.488Z,0.60
2022-12-22T16:27:04.195Z,0.60
2022-12-22T16:32:32.604Z,0.60
2022-12-22T16:38:00.082Z,0.60
2022-12-22T16:49:26.192Z,0.60
2022-12-22T16:54:52.611Z,1.92
2022-12-22T17:00:21.151Z,0.50
2022-12-22T17:05:51.534Z,0.73
2022-12-22T17:11:22.436Z,0.50
2022-12-22T17:16:44.570Z,0.60
2022-12-22T17:22:06.554Z,0.50
2022-12-22T17:27:31.653Z,0.70
2022-12-22T17:32:54.123Z,0.50
2022-12-22T17:38:20.737Z,0.80
2022-12-22T17:43:42.654Z,0.70
2022-12-22T17:49:04.551Z,0.93
2022-12-22T17:54:28.609Z,0.60
2022-12-22T17:59:50.926Z,0.63
2022-12-22T18:05:17.533Z,0.65
2022-12-22T18:10:43.174Z,0.60
2022-12-22T18:16:05.451Z,0.50
2022-12-22T18:21:28.666Z,0.73
2022-12-22T18:26:50.394Z,0.50
2022-12-22T18:32:16.154Z,0.50
2022-12-22T18:37:42.241Z,0.93
2022-12-22T18:43:14.254Z,0.60
2022-12-22T18:48:36.720Z,0.60
2022-12-22T18:53:58.583Z,0.50
2022-12-22T18:59:26.224Z,0.70
2022-12-22T19:04:50.271Z,1.05
2022-12-22T19:10:18.180Z,0.50
2022-12-22T19:15:41.201Z,0.60
2022-12-22T19:21:03.558Z,0.70
2022-12-22T19:26:27.522Z,0.60
2022-12-22T19:31:50.175Z,0.50
2022-12-22T19:37:12.473Z,0.50
2022-12-22T19:42:35.931Z,0.50
2022-12-22T19:47:58.236Z,0.52
2022-12-22T19:53:20.564Z,0.63
2022-12-22T19:58:42.837Z,0.80
2022-12-22T20:04:05.073Z,5.00
2022-12-22T20:09:27.419Z,0.77
2022-12-22T20:14:49.992Z,0.50
2022-12-22T20:20:21.389Z,0.50
2022-12-22T20:25:47.543Z,0.50
2022-12-22T20:31:14.123Z,0.50
2022-12-22T20:36:36.691Z,0.50
2022-12-22T20:41:58.983Z,0.80
2022-12-22T20:47:22.496Z,1.35
2022-12-22T20:52:44.934Z,0.60
2022-12-22T20:58:33.565Z,0.50
2022-12-22T21:03:55.977Z,1.15
2022-12-22T21:09:19.315Z,0.70
2022-12-22T21:14:41.283Z,0.50
2022-12-22T21:20:03.413Z,1.13
2022-12-22T21:25:26.273Z,0.50
2022-12-22T21:30:48.539Z,0.60
2022-12-22T21:36:33.116Z,0.60
2022-12-22T21:42:01.775Z,0.82
2022-12-22T21:47:24.070Z,0.50
2022-12-22T21:52:53.001Z,0.98
2022-12-22T21:58:15.661Z,1.02
2022-12-22T22:03:37.913Z,0.70
2022-12-22T22:09:00.222Z,0.50
2022-12-22T22:14:22.308Z,0.95
2022-12-22T22:19:47.333Z,0.60
2022-12-22T22:25:10.844Z,0.50
2022-12-22T22:30:33.929Z,0.50
2022-12-22T22:36:00.727Z,2.35
2022-12-22T22:41:29.685Z,0.70
2022-12-22T22:46:51.988Z,0.70
2022-12-22T22:52:14.154Z,0.50
2022-12-22T22:57:36.024Z,0.50
2022-12-22T23:03:00.311Z,0.63
2022-12-22T23:08:22.421Z,0.60
2022-12-22T23:13:44.746Z,1.23
2022-12-22T23:19:06.930Z,0.77
2022-12-22T23:24:28.954Z,0.70
2022-12-22T23:29:51.095Z,0.75
2022-12-22T23:35:18.514Z,1.23
2022-12-22T23:40:52.381Z,0.80
2022-12-22T23:46:17.791Z,1.35
2022-12-22T23:51:39.765Z,0.95
2022-12-22T23:57:01.969Z,0.52
